Time;durP1;ratioP1;P1;durP2;ratioP2;P2;SDS_P1;SDS_P2;PMS_P1;PMS_P2;Temp;Humidity;BMP_temperature;BMP_pressure;BME280_temperature;BME280_humidity;BME280_pressure;Samples;Min_cycle;Max_cycle;Signal;HPM_P1;HPM_P2
2022/08/21 00:00:22;;;;;;;3.17;2.20;;;20.70;82.50;;;21.76;50.36;100678.63;4977738;28;20611;-66
2022/08/21 00:03:01;;;;;;;2.83;2.63;;;20.60;82.90;;;21.79;50.27;100679.06;4994078;28;20721;-67
2022/08/21 00:05:29;;;;;;;3.90;2.33;;;20.60;83.10;;;21.73;50.30;100676.31;4989646;28;21243;-66
2022/08/21 00:07:57;;;;;;;18.40;2.87;;;20.50;83.40;;;21.62;50.73;100680.22;4995843;28;20606;-66
2022/08/21 00:10:25;;;;;;;6.77;3.07;;;20.50;83.80;;;21.61;50.90;100678.59;4977195;28;20991;-66
2022/08/21 00:12:52;;;;;;;3.70;2.70;;;20.40;84.20;;;21.59;50.86;100678.75;4993717;28;20685;-68
2022/08/21 00:15:26;;;;;;;3.70;3.27;;;20.40;84.40;;;21.46;51.41;100677.72;4976673;28;21039;-66
2022/08/21 00:17:55;;;;;;;2.60;2.37;;;20.30;84.90;;;21.55;51.13;100671.34;4992847;28;20642;-66
2022/08/21 00:20:23;;;;;;;2.57;2.40;;;20.40;85.20;;;21.64;51.34;100678.22;4989957;28;20622;-66
2022/08/21 00:22:51;;;;;;;2.80;2.47;;;20.40;85.40;;;21.65;51.22;100674.56;4984945;28;20638;-66
2022/08/21 00:25:19;;;;;;;2.53;2.33;;;20.40;85.70;;;21.55;51.42;100668.69;4962193;28;20733;-66
2022/08/21 00:27:52;;;;;;;4.23;2.97;;;20.30;86.10;;;21.52;51.48;100674.34;4993245;28;20638;-67
2022/08/21 00:30:23;;;;;;;3.73;3.37;;;20.30;86.30;;;21.43;51.83;100670.13;4976546;28;20618;-68
2022/08/21 00:32:53;;;;;;;4.20;3.13;;;20.20;86.60;;;21.36;51.95;100672.66;4993901;28;20643;-65
2022/08/21 00:35:29;;;;;;;4.17;3.07;;;20.20;87.10;;;21.22;52.42;100668.13;4979233;28;20682;-66
2022/08/21 00:37:57;;;;;;;5.83;2.90;;;20.10;87.50;;;21.31;52.64;100675.03;4983561;28;20642;-67
2022/08/21 00:40:35;;;;;;;6.97;2.40;;;20.10;87.90;;;21.21;52.37;100677.09;4983930;28;21086;-67
2022/08/21 00:43:05;;;;;;;3.70;2.50;;;20.10;88.20;;;21.15;52.86;100677.81;4983447;28;20634;-68
2022/08/21 00:45:33;;;;;;;2.50;2.30;;;20.00;88.80;;;21.06;53.53;100670.91;4976573;28;20702;-66
2022/08/21 00:48:01;;;;;;;3.97;2.73;;;19.90;89.20;;;20.98;53.30;100678.88;4978349;28;20642;-66
2022/08/21 00:50:34;;;;;;;5.80;2.70;;;19.80;89.30;;;20.73;54.20;100682.69;4993999;28;20622;-67
2022/08/21 00:53:03;;;;;;;8.40;2.37;;;19.70;90.10;;;20.70;53.87;100680.38;4993186;28;21021;-66
2022/08/21 00:55:31;;;;;;;4.33;2.93;;;19.60;90.30;;;20.66;54.23;100673.78;4976460;28;20670;-67
2022/08/21 00:58:01;;;;;;;3.43;2.90;;;19.60;90.70;;;20.60;54.68;100677.13;4955924;28;20638;-65
2022/08/21 01:00:35;;;;;;;4.63;3.03;;;19.50;91.00;;;20.66;54.97;100673.78;4957267;28;21167;-65
2022/08/21 01:03:09;;;;;;;3.40;2.97;;;19.50;91.30;;;20.68;54.76;100677.91;4975394;28;20737;-65
2022/08/21 01:05:37;;;;;;;3.97;3.00;;;19.40;91.60;;;20.65;54.40;100678.28;4975694;28;21121;-66
2022/08/21 01:08:06;;;;;;;3.93;3.00;;;19.40;91.60;;;20.79;54.47;100687.28;4974604;28;20625;-66
2022/08/21 01:10:35;;;;;;;4.93;2.73;;;19.50;91.70;;;20.83;53.47;100680.63;4990671;28;21219;-67
2022/08/21 01:13:07;;;;;;;6.00;3.50;;;19.60;91.50;;;20.84;54.10;100672.53;4992765;28;21030;-67
2022/08/21 01:15:40;;;;;;;7.93;3.23;;;19.60;91.60;;;20.89;53.79;100677.31;4992792;28;20705;-67
2022/08/21 01:18:10;;;;;;;4.27;2.90;;;19.60;91.50;;;20.91;53.79;100672.66;4983090;28;21043;-67
2022/08/21 01:20:43;;;;;;;4.90;3.60;;;19.60;91.60;;;20.94;53.79;100680.25;4990368;28;20733;-66
2022/08/21 01:23:12;;;;;;;7.03;3.37;;;19.70;91.70;;;21.04;53.65;100672.91;4991832;28;22638;-64
2022/08/21 01:25:39;;;;;;;9.27;3.37;;;19.70;91.70;;;21.08;53.60;100679.53;4974953;28;21847;-67
2022/08/21 01:28:14;;;;;;;4.20;3.50;;;19.80;91.60;;;20.97;54.23;100671.94;4975111;28;20986;-65
2022/08/21 01:30:43;;;;;;;6.33;3.00;;;19.80;91.80;;;20.92;54.59;100671.63;4992194;28;20614;-66
2022/08/21 01:33:10;;;;;;;8.20;3.50;;;19.80;92.00;;;20.97;54.15;100674.59;4993776;28;20625;-66
2022/08/21 01:35:38;;;;;;;5.40;3.27;;;19.80;92.10;;;21.11;54.24;100671.19;4974564;28;20675;-67
2022/08/21 01:38:05;;;;;;;3.97;2.80;;;19.80;92.10;;;20.99;54.18;100677.06;4991971;28;20639;-64
2022/08/21 01:40:32;;;;;;;8.83;3.53;;;19.80;92.10;;;20.96;54.20;100675.59;4983657;28;20625;-67
2022/08/21 01:42:59;;;;;;;6.23;4.07;;;19.80;92.20;;;20.94;54.04;100669.63;4991906;28;20645;-67
2022/08/21 01:45:26;;;;;;;9.67;3.30;;;19.70;92.30;;;20.93;54.04;100669.81;4992527;28;20639;-68
2022/08/21 01:47:53;;;;;;;3.80;2.90;;;19.70;92.40;;;20.94;54.60;100666.16;4992629;28;20622;-67
2022/08/21 01:50:21;;;;;;;5.73;3.60;;;19.70;92.50;;;20.96;54.08;100661.50;4974284;28;20646;-66
2022/08/21 01:52:49;;;;;;;3.90;2.63;;;19.60;92.70;;;20.87;54.05;100668.66;4991423;28;21602;-65
2022/08/21 01:55:18;;;;;;;4.50;3.10;;;19.60;92.80;;;20.79;54.58;100666.91;4992008;28;20682;-66
2022/08/21 01:57:46;;;;;;;3.13;2.83;;;19.50;92.90;;;20.74;54.95;100666.59;4974021;28;20701;-66
2022/08/21 02:00:17;;;;;;;4.43;3.23;;;19.40;93.10;;;20.72;54.88;100665.94;4970320;28;20627;-66
2022/08/21 02:02:44;;;;;;;8.70;3.67;;;19.40;93.30;;;20.69;54.82;100657.53;4983684;28;20651;-68
2022/08/21 02:05:13;;;;;;;4.67;2.93;;;19.40;93.50;;;20.69;55.43;100663.66;4978518;28;21261;-66
2022/08/21 02:07:43;;;;;;;3.63;2.80;;;19.40;93.70;;;20.63;55.19;100660.88;4972878;28;20635;-66
2022/08/21 02:10:16;;;;;;;4.50;3.30;;;19.30;93.80;;;20.58;55.00;100657.91;4982660;28;20634;-65
2022/08/21 02:12:43;;;;;;;3.50;3.20;;;19.30;93.90;;;20.51;55.51;100660.44;4958540;28;21197;-65
2022/08/21 02:15:10;;;;;;;6.93;3.27;;;19.20;94.20;;;20.51;55.69;100655.13;4987121;28;20675;-65
2022/08/21 02:17:44;;;;;;;5.73;3.33;;;19.10;94.30;;;20.53;55.49;100647.81;5006640;28;20710;-66
2022/08/21 02:20:21;;;;;;;3.23;2.93;;;19.10;94.50;;;20.55;55.47;100661.72;4981324;28;20631;-65
2022/08/21 02:22:49;;;;;;;3.57;2.97;;;19.10;94.70;;;20.32;56.13;100649.41;4974778;28;20750;-66
2022/08/21 02:25:18;;;;;;;4.30;3.13;;;19.10;94.80;;;20.38;55.57;100641.59;4958499;28;20666;-66
2022/08/21 02:27:47;;;;;;;3.93;2.80;;;19.10;95.00;;;20.32;55.93;100642.31;4975060;28;21167;-64
2022/08/21 02:30:23;;;;;;;3.90;2.83;;;19.00;95.20;;;20.41;55.53;100640.44;4986817;28;20621;-68
2022/08/21 02:32:50;;;;;;;3.57;3.13;;;19.10;95.10;;;20.34;56.01;100637.66;4971489;28;20633;-66
2022/08/21 02:35:19;;;;;;;3.67;2.77;;;19.00;94.90;;;20.37;55.42;100641.78;4955891;28;20710;-65
2022/08/21 02:37:59;;;;;;;6.50;2.93;;;19.00;95.10;;;20.37;55.61;100644.44;4946770;28;20849;-65
2022/08/21 02:40:30;;;;;;;4.77;3.00;;;19.00;95.10;;;20.28;55.62;100645.47;4956466;28;20706;-66
2022/08/21 02:42:59;;;;;;;4.60;3.00;;;19.00;95.10;;;20.24;55.53;100652.94;4973478;28;20619;-67
2022/08/21 02:45:27;;;;;;;4.70;4.13;;;19.00;95.00;;;20.26;55.58;100642.16;4981356;28;20729;-67
2022/08/21 02:48:03;;;;;;;5.93;3.40;;;19.00;95.10;;;20.20;55.40;100640.19;4990815;28;20630;-64
2022/08/21 02:50:44;;;;;;;4.80;2.73;;;19.00;95.00;;;20.32;55.43;100654.72;4983189;28;20630;-67
2022/08/21 02:53:16;;;;;;;5.40;3.00;;;19.00;94.90;;;20.25;55.30;100646.66;4973782;28;20749;-64
2022/08/21 02:55:46;;;;;;;5.20;3.73;;;19.00;94.90;;;20.31;55.11;100642.50;4991055;28;20706;-64
2022/08/21 02:58:16;;;;;;;5.67;3.20;;;19.00;94.90;;;20.35;55.06;100651.75;4973579;28;20639;-64
2022/08/21 03:00:44;;;;;;;5.10;3.03;;;19.00;95.00;;;20.29;55.34;100645.31;4981490;28;20722;-64
2022/08/21 03:03:13;;;;;;;5.80;3.43;;;19.00;95.00;;;20.20;55.43;100645.47;4990773;28;20602;-66
2022/08/21 03:05:41;;;;;;;3.67;3.23;;;19.00;95.10;;;20.21;55.54;100637.38;4973790;28;21022;-64
2022/08/21 03:08:11;;;;;;;4.47;3.30;;;19.00;95.20;;;20.28;55.14;100646.31;4973148;28;20629;-63
2022/08/21 03:10:42;;;;;;;5.20;3.40;;;19.00;95.40;;;20.30;54.93;100651.41;4990727;28;20626;-64
2022/08/21 03:13:10;;;;;;;9.90;3.00;;;19.00;95.10;;;20.23;55.27;100639.88;4975827;28;20638;-66
2022/08/21 03:15:39;;;;;;;3.43;3.17;;;19.00;95.20;;;20.20;55.31;100638.38;4981833;28;20686;-65
2022/08/21 03:18:07;;;;;;;6.87;3.30;;;19.00;95.30;;;20.24;55.11;100641.50;4989562;28;20606;-63
2022/08/21 03:20:36;;;;;;;6.40;3.13;;;19.00;95.40;;;20.00;55.64;100643.22;4991044;28;20718;-64
2022/08/21 03:23:04;;;;;;;2.80;2.60;;;18.90;95.20;;;20.12;55.63;100644.50;4984649;28;20626;-64
2022/08/21 03:25:41;;;;;;;3.90;3.17;;;18.90;95.40;;;20.17;55.12;100649.28;4975007;28;20653;-63
2022/08/21 03:28:15;;;;;;;3.63;3.33;;;18.90;95.40;;;20.11;55.49;100652.63;4989396;28;20737;-65
2022/08/21 03:30:44;;;;;;;6.20;3.37;;;18.90;95.50;;;20.13;55.19;100651.47;4974034;28;20637;-65
2022/08/21 03:33:12;;;;;;;5.63;3.43;;;18.80;95.60;;;20.14;55.13;100644.34;4980371;28;20630;-65
2022/08/21 03:35:44;;;;;;;6.27;3.57;;;18.90;95.30;;;19.87;55.77;100650.88;4990287;28;21090;-66
2022/08/21 03:38:12;;;;;;;6.57;4.07;;;18.80;95.20;;;19.98;55.14;100652.34;4957086;28;20971;-65
2022/08/21 03:40:42;;;;;;;3.43;2.90;;;18.80;95.20;;;20.11;54.62;100648.16;4957655;28;20705;-66
2022/08/21 03:43:09;;;;;;;5.67;3.30;;;18.80;95.20;;;19.98;54.96;100652.34;4990004;28;20614;-65
2022/08/21 03:45:37;;;;;;;3.20;2.90;;;18.80;95.00;;;20.00;54.99;100651.16;4989964;28;20659;-64
2022/08/21 03:48:07;;;;;;;4.57;3.00;;;18.80;95.10;;;20.01;54.94;100646.72;4972951;28;20626;-65
2022/08/21 03:50:41;;;;;;;4.57;2.70;;;18.80;95.30;;;19.98;55.34;100649.69;4971415;28;20633;-64
2022/08/21 03:53:11;;;;;;;6.60;3.03;;;18.80;95.40;;;20.05;55.17;100648.84;4990411;28;20632;-66
2022/08/21 03:55:49;;;;;;;4.73;3.27;;;18.80;95.50;;;19.90;55.82;100653.19;4972535;28;20666;-64
2022/08/21 03:58:19;;;;;;;3.03;2.73;;;18.70;95.80;;;19.93;55.56;100650.19;4972117;28;20991;-66
2022/08/21 04:00:49;;;;;;;4.30;2.90;;;18.70;95.90;;;19.84;55.61;100650.41;4972205;28;20631;-64
2022/08/21 04:03:17;;;;;;;5.40;3.80;;;18.70;95.80;;;19.91;55.62;100652.19;4972306;28;20637;-64
2022/08/21 04:05:45;;;;;;;3.90;3.27;;;18.70;95.80;;;19.85;55.59;100652.03;4974106;28;20658;-66
2022/08/21 04:08:14;;;;;;;7.10;3.20;;;18.70;96.00;;;19.80;56.43;100657.88;4989198;28;21046;-66
2022/08/21 04:10:43;;;;;;;5.00;2.70;;;18.60;96.30;;;19.82;55.78;100665.63;4989924;28;20626;-65
2022/08/21 04:13:11;;;;;;;4.03;3.23;;;18.60;96.30;;;19.84;56.01;100667.13;4972812;28;20614;-69
2022/08/21 04:15:38;;;;;;;3.40;2.70;;;18.60;96.40;;;19.89;55.92;100670.06;4979959;28;20683;-64
2022/08/21 04:18:05;;;;;;;4.80;3.50;;;18.60;96.50;;;20.06;55.47;100669.03;4990773;28;21230;-63
2022/08/21 04:20:32;;;;;;;4.50;3.23;;;18.70;96.40;;;20.08;55.64;100667.03;4991467;28;20610;-64
2022/08/21 04:23:00;;;;;;;5.40;3.13;;;18.80;96.40;;;19.98;55.71;100677.00;4989630;28;21008;-64
2022/08/21 04:25:28;;;;;;;5.20;2.90;;;18.70;96.30;;;19.96;55.88;100676.34;4972779;28;20643;-63
2022/08/21 04:27:55;;;;;;;3.17;2.70;;;18.80;96.40;;;19.90;56.09;100677.03;4972916;28;20642;-64
2022/08/21 04:30:22;;;;;;;3.13;2.80;;;18.70;96.50;;;19.90;56.04;100686.78;4972173;28;21271;-64
2022/08/21 04:32:56;;;;;;;6.97;3.00;;;18.70;96.60;;;19.89;56.09;100682.50;4973789;28;20622;-64
2022/08/21 04:35:26;;;;;;;2.60;2.40;;;18.60;96.80;;;19.89;56.18;100683.31;4987972;23;20674;-64
2022/08/21 04:37:53;;;;;;;3.57;3.20;;;18.60;96.90;;;19.78;56.57;100683.66;4970647;28;20646;-66
2022/08/21 04:40:24;;;;;;;6.67;3.13;;;18.50;97.20;;;19.81;56.33;100683.31;4972379;28;20707;-65
2022/08/21 04:42:57;;;;;;;3.70;2.57;;;18.50;97.10;;;19.82;56.10;100685.00;4975136;28;20641;-65
2022/08/21 04:45:29;;;;;;;6.53;3.40;;;18.50;97.20;;;19.91;55.54;100689.25;4970886;28;20715;-63
2022/08/21 04:47:58;;;;;;;2.87;2.67;;;18.60;96.70;;;19.84;55.44;100692.75;4948290;29;20667;-66
2022/08/21 04:50:42;;;;;;;4.67;2.60;;;18.60;96.40;;;19.88;55.95;100700.22;4955684;29;20630;-67
2022/08/21 04:53:17;;;;;;;4.33;2.50;;;18.70;96.70;;;19.86;56.11;100701.38;4956310;29;20628;-66
2022/08/21 04:55:45;;;;;;;4.50;2.63;;;18.70;96.70;;;20.03;55.68;100703.81;4954360;28;20684;-66
2022/08/21 04:58:17;;;;;;;4.20;2.60;;;18.70;96.80;;;20.20;55.05;100703.75;4941821;29;20623;-65
2022/08/21 05:00:46;;;;;;;4.53;3.00;;;18.80;96.60;;;20.22;55.02;100702.63;4935761;28;20634;-65
2022/08/21 05:03:16;;;;;;;2.90;2.70;;;18.90;96.50;;;20.47;54.35;100698.06;4937007;29;21212;-66
2022/08/21 05:05:43;;;;;;;3.40;2.67;;;19.00;96.30;;;20.69;53.72;100700.78;4953994;28;20632;-64
2022/08/21 05:08:16;;;;;;;4.27;2.80;;;19.20;96.30;;;20.86;53.26;100697.03;4955999;28;20624;-66
2022/08/21 05:10:44;;;;;;;8.10;2.73;;;19.40;95.60;;;21.05;52.50;100703.75;4948294;28;21855;-65
2022/08/21 05:13:13;;;;;;;4.17;2.60;;;19.60;95.20;;;21.33;51.88;100707.53;4954933;29;20636;-65
2022/08/21 05:15:41;;;;;;;3.13;2.83;;;19.80;94.80;;;21.64;51.85;100710.91;4935333;28;21232;-68
2022/08/21 05:18:08;;;;;;;4.17;2.60;;;20.10;94.70;;;21.99;50.52;100711.28;4953655;28;21217;-66
2022/08/21 05:20:35;;;;;;;3.13;2.90;;;20.50;94.50;;;22.31;49.72;100716.25;4954894;28;20595;-66
2022/08/21 05:23:12;;;;;;;4.53;2.60;;;20.70;93.60;;;22.66;48.60;100720.81;4955400;29;21196;-65
2022/08/21 05:25:41;;;;;;;2.73;2.53;;;21.10;93.00;;;23.05;47.56;100721.28;4954600;28;21342;-65
2022/08/21 05:28:08;;;;;;;6.23;2.80;;;21.40;92.30;;;23.39;46.57;100725.13;4937777;29;20698;-67
2022/08/21 05:30:36;;;;;;;3.70;2.33;;;21.70;91.80;;;23.74;45.70;100714.38;4953114;28;20668;-65
2022/08/21 05:33:05;;;;;;;5.00;2.70;;;22.00;91.30;;;24.12;45.28;100728.19;4949845;28;21021;-66
2022/08/21 05:35:33;;;;;;;3.17;2.87;;;22.30;90.80;;;24.45;44.33;100733.69;4952409;29;21236;-67
2022/08/21 05:38:00;;;;;;;3.47;2.70;;;22.70;90.30;;;24.94;43.64;100730.84;4953487;28;20644;-66
2022/08/21 05:40:28;;;;;;;3.87;3.13;;;23.10;89.50;;;25.36;42.55;100736.69;4936348;29;20628;-65
2022/08/21 05:42:56;;;;;;;4.00;2.57;;;23.50;88.00;;;25.90;41.54;100720.50;4953355;29;20617;-67
2022/08/21 05:45:31;;;;;;;3.23;2.70;;;23.90;86.50;;;26.52;40.19;100736.03;4952993;28;21066;-68
2022/08/21 05:48:16;;;;;;;5.27;2.90;;;24.40;84.80;;;26.94;38.44;100723.91;4946720;29;20994;-67
2022/08/21 05:50:45;;;;;;;4.50;3.00;;;24.90;82.50;;;27.10;38.00;100728.78;4952983;28;20642;-68
2022/08/21 05:53:15;;;;;;;3.97;3.03;;;25.20;80.70;;;27.29;37.92;100732.38;4952718;28;20646;-68
2022/08/21 05:55:42;;;;;;;3.07;2.63;;;25.30;79.70;;;28.08;36.93;100727.22;4935123;29;20673;-67
2022/08/21 05:58:18;;;;;;;3.30;2.27;;;25.80;78.90;;;28.84;35.51;100728.44;4952474;28;20624;-68
2022/08/21 06:00:47;;;;;;;3.43;2.87;;;26.40;77.10;;;29.60;34.29;100733.13;4954180;28;20640;-68
2022/08/21 06:03:24;;;;;;;4.60;2.90;;;26.90;75.50;;;30.31;32.79;100731.06;4936660;29;20676;-69
2022/08/21 06:05:52;;;;;;;6.60;2.87;;;27.30;73.60;;;30.95;31.56;100731.84;4950216;28;20664;-68
2022/08/21 06:08:21;;;;;;;3.03;2.60;;;27.70;71.90;;;31.61;30.99;100734.66;4935816;28;20691;-68
2022/08/21 06:10:50;;;;;;;3.03;2.70;;;28.10;70.80;;;32.25;29.62;100732.38;4953108;28;20711;-67
2022/08/21 06:13:19;;;;;;;5.80;3.57;;;28.50;69.20;;;32.85;28.73;100728.56;4953622;29;20619;-68
2022/08/21 06:15:46;;;;;;;5.17;3.17;;;28.90;68.40;;;33.51;28.73;100734.66;4954444;28;20676;-67
2022/08/21 06:18:13;;;;;;;4.43;3.20;;;29.50;67.30;;;34.17;27.35;100733.25;4936374;29;21009;-66
2022/08/21 06:20:41;;;;;;;4.97;3.63;;;29.90;65.40;;;34.73;26.57;100731.63;4952670;28;21240;-67
2022/08/21 06:23:08;;;;;;;2.67;2.43;;;30.40;63.70;;;35.23;25.80;100741.78;4953433;29;20697;-67
2022/08/21 06:25:35;;;;;;;6.67;3.27;;;30.80;62.40;;;35.67;24.92;100745.63;4952950;28;20666;-69
2022/08/21 06:28:07;;;;;;;3.63;2.90;;;31.20;61.30;;;36.01;24.67;100741.28;4953249;28;20616;-66
2022/08/21 06:30:36;;;;;;;6.47;2.83;;;31.50;60.10;;;36.66;23.92;100745.66;4952789;29;20618;-67
2022/08/21 06:33:04;;;;;;;5.03;2.53;;;31.80;59.20;;;37.00;23.45;100740.34;4951074;28;20628;-71
2022/08/21 06:35:31;;;;;;;4.37;3.47;;;32.20;58.20;;;37.83;23.06;100747.34;4950199;28;20671;-68
2022/08/21 06:37:58;;;;;;;3.87;3.37;;;32.70;57.40;;;38.63;22.29;100742.88;4952486;28;20632;-67
2022/08/21 06:40:30;;;;;;;7.43;3.60;;;33.40;56.30;;;38.74;21.69;100738.13;4952783;29;21006;-69
2022/08/21 06:43:13;;;;;;;5.67;3.40;;;33.80;55.30;;;39.78;20.74;100744.16;4950735;28;20660;-68
2022/08/21 06:45:41;;;;;;;6.37;3.40;;;34.40;54.20;;;40.68;20.28;100750.56;4935718;29;20644;-68
2022/08/21 06:48:09;;;;;;;4.10;3.53;;;35.00;53.00;;;41.18;19.20;100742.34;4952656;28;20632;-67
2022/08/21 06:50:36;;;;;;;4.73;3.40;;;35.40;51.80;;;41.23;19.41;100740.34;4954330;29;20621;-68
2022/08/21 06:53:09;;;;;;;4.30;3.30;;;35.80;50.70;;;42.13;18.97;100737.16;4952908;29;21180;-66
2022/08/21 06:55:37;;;;;;;3.43;3.13;;;36.50;50.00;;;43.01;17.80;100749.66;4951744;28;20746;-68
2022/08/21 06:58:05;;;;;;;3.17;2.87;;;37.20;48.80;;;43.93;16.99;100751.78;4952874;29;20631;-67
2022/08/21 07:00:32;;;;;;;5.00;3.40;;;37.80;47.90;;;44.42;16.51;100753.03;4952140;29;20667;-69
2022/08/21 07:03:00;;;;;;;3.57;3.27;;;38.20;46.70;;;45.29;15.74;100752.06;4952047;28;21010;-67
2022/08/21 07:05:29;;;;;;;3.23;2.97;;;38.70;46.00;;;45.65;15.29;100745.06;4950838;29;20648;-67
2022/08/21 07:07:57;;;;;;;3.57;3.10;;;39.10;45.30;;;45.79;15.09;100746.34;4951971;28;20627;-72
2022/08/21 07:10:26;;;;;;;4.70;3.30;;;39.30;44.60;;;45.86;15.44;100740.25;4952808;28;21220;-70
2022/08/21 07:12:54;;;;;;;4.27;2.97;;;39.40;44.40;;;45.69;15.58;100732.19;4952299;29;20620;-68
2022/08/21 07:16:04;;;;;;;3.30;3.00;;;39.40;44.20;;;45.43;15.67;100740.72;4952448;29;20703;-67
2022/08/21 07:18:31;;;;;;;3.27;2.97;;;39.40;44.00;;;45.49;15.46;100736.63;4947283;28;21012;-67
2022/08/21 07:21:00;;;;;;;3.73;2.87;;;39.50;43.60;;;45.09;15.36;100733.59;4951071;28;20664;-67
2022/08/21 07:23:32;;;;;;;4.47;3.70;;;39.40;43.60;;;45.02;15.79;100733.34;4950630;29;21202;-68
2022/08/21 07:26:00;;;;;;;4.60;3.10;;;39.30;43.60;;;45.08;15.67;100731.19;4951735;29;20751;-67
2022/08/21 07:28:28;;;;;;;5.60;3.50;;;39.20;43.60;;;44.22;16.41;100733.69;4951851;28;21233;-68
2022/08/21 07:30:57;;;;;;;3.87;3.20;;;38.80;43.50;;;42.61;17.47;100719.88;4952045;29;20675;-67
2022/08/21 07:33:27;;;;;;;3.90;3.30;;;38.10;44.00;;;41.77;18.56;100722.78;4950474;28;20663;-67
2022/08/21 07:35:54;;;;;;;3.37;3.07;;;37.70;44.20;;;39.22;20.29;100717.78;4952035;28;20681;-67
2022/08/21 07:38:22;;;;;;;4.13;3.30;;;36.30;44.90;;;37.57;21.92;100707.78;4951755;28;20743;-67
2022/08/21 07:40:52;;;;;;;8.13;3.80;;;35.20;46.20;;;36.12;24.01;100701.31;4951740;28;20638;-66
2022/08/21 07:43:21;;;;;;;4.40;3.30;;;34.00;47.30;;;35.12;25.61;100708.41;4950782;28;20632;-66
2022/08/21 07:45:49;;;;;;;4.63;3.80;;;33.00;48.60;;;34.29;26.57;100699.44;4950422;28;20664;-66
2022/08/21 07:48:16;;;;;;;3.47;3.27;;;32.10;50.00;;;34.06;26.66;100709.91;4951667;29;20616;-66
2022/08/21 07:50:43;;;;;;;6.93;3.43;;;31.70;50.70;;;33.77;27.58;100695.91;4952967;29;20631;-66
2022/08/21 07:53:10;;;;;;;4.00;3.60;;;31.30;51.30;;;33.58;27.34;100703.59;4952102;28;20994;-67
2022/08/21 07:55:37;;;;;;;5.67;3.80;;;31.20;51.90;;;33.16;27.97;100702.69;4951311;28;21313;-67
2022/08/21 07:58:04;;;;;;;4.43;3.30;;;30.90;52.30;;;32.67;28.94;100704.59;4951699;28;20636;-66
2022/08/21 08:00:32;;;;;;;3.93;3.43;;;30.40;52.90;;;32.42;29.15;100704.25;4956745;28;20616;-67
2022/08/21 08:02:59;;;;;;;3.93;3.63;;;30.20;53.20;;;32.52;29.00;100703.63;4951168;29;20623;-66
2022/08/21 08:05:30;;;;;;;5.23;3.20;;;30.10;53.50;;;32.42;29.19;100706.13;4953456;29;20651;-66
2022/08/21 08:07:57;;;;;;;4.43;3.53;;;30.00;53.60;;;32.21;29.38;100702.38;4953703;28;20616;-65
2022/08/21 08:10:26;;;;;;;5.83;4.00;;;29.90;53.90;;;32.10;30.14;100704.13;4953796;29;20632;-66
2022/08/21 08:12:54;;;;;;;6.30;3.37;;;29.70;54.30;;;31.43;31.02;100710.63;4958859;28;20619;-67
2022/08/21 08:15:24;;;;;;;4.40;3.47;;;29.40;54.90;;;31.27;31.25;100700.63;4956754;28;20712;-66
2022/08/21 08:17:52;;;;;;;3.90;3.20;;;29.20;55.00;;;31.09;31.28;100692.75;4969617;28;20674;-68
2022/08/21 08:20:19;;;;;;;4.27;3.83;;;29.20;55.30;;;31.07;31.51;100701.06;4962713;28;20632;-67
2022/08/21 08:22:47;;;;;;;6.17;3.60;;;29.00;55.60;;;31.26;31.57;100694.41;4957225;29;20631;-67
2022/08/21 08:25:18;;;;;;;4.67;3.40;;;29.10;56.00;;;31.48;31.41;100691.81;4956647;28;20636;-66
2022/08/21 08:27:45;;;;;;;5.80;3.57;;;29.30;56.10;;;31.41;31.80;100690.38;4940195;29;20631;-67
2022/08/21 08:30:16;;;;;;;4.27;3.87;;;29.20;56.20;;;31.57;31.39;100684.13;4956926;28;20644;-68
2022/08/21 08:32:43;;;;;;;5.77;4.00;;;29.30;56.20;;;31.37;31.57;100693.50;4950854;28;20646;-67
2022/08/21 08:35:11;;;;;;;6.13;3.97;;;29.20;56.10;;;31.49;31.70;100681.88;4952694;28;20633;-67
2022/08/21 08:37:40;;;;;;;4.17;3.77;;;29.10;56.40;;;31.54;31.46;100680.06;4955133;29;20696;-66
2022/08/21 08:40:55;;;;;;;3.83;3.53;;;29.30;56.60;;;31.70;31.25;100673.00;4955225;28;20735;-65
2022/08/21 08:43:22;;;;;;;4.43;3.30;;;29.30;56.50;;;31.71;31.04;100664.66;4921840;28;20614;-66
2022/08/21 08:45:53;;;;;;;5.03;3.90;;;29.50;56.30;;;31.63;31.58;100675.88;4956248;28;21232;-66
2022/08/21 08:48:45;;;;;;;7.60;4.10;;;29.40;56.70;;;31.57;31.66;100674.19;4955960;29;20608;-66
2022/08/21 08:51:49;;;;;;;6.00;3.80;;;29.50;56.70;;;31.61;31.79;100659.13;4955026;29;20624;-66
2022/08/21 08:54:33;;;;;;;4.50;3.60;;;29.40;56.90;;;31.32;32.42;100660.28;4935921;29;20717;-66
2022/08/21 08:57:03;;;;;;;6.40;3.60;;;29.10;57.40;;;31.28;32.32;100659.13;4939057;29;20686;-67
2022/08/21 08:59:40;;;;;;;3.60;3.30;;;29.10;57.50;;;31.28;32.61;100661.81;4938925;29;20658;-67
2022/08/21 09:02:15;;;;;;;3.80;3.50;;;29.20;57.40;;;30.99;32.72;100649.44;4946923;29;20609;-66
2022/08/21 09:04:46;;;;;;;5.17;4.53;;;29.20;57.60;;;30.96;33.13;100655.34;4936423;29;21047;-65
2022/08/21 09:07:47;;;;;;;5.77;4.23;;;29.10;57.70;;;31.15;32.46;100648.66;4941874;28;20655;-65
2022/08/21 09:10:39;;;;;;;6.30;3.90;;;29.20;57.60;;;31.43;32.22;100645.91;4939300;29;20642;-65
2022/08/21 09:13:53;;;;;;;5.27;4.07;;;29.40;57.70;;;31.12;33.12;100643.75;4971714;28;21400;-65
2022/08/21 09:16:31;;;;;;;3.90;3.60;;;29.20;57.80;;;31.39;32.40;100644.75;4927557;29;20680;-65
2022/08/21 09:19:39;;;;;;;4.90;3.90;;;29.40;58.00;;;31.51;32.79;100631.19;4960934;29;21183;-63
2022/08/21 09:22:39;;;;;;;3.90;3.50;;;29.50;57.60;;;31.86;31.81;100640.59;4953702;29;20620;-65
2022/08/21 09:25:22;;;;;;;5.27;4.10;;;29.80;57.70;;;31.95;31.68;100625.66;4952112;28;20620;-66
2022/08/21 09:27:50;;;;;;;4.97;3.53;;;29.90;57.20;;;31.95;31.47;100622.13;4923349;29;20663;-65
2022/08/21 09:30:24;;;;;;;5.33;3.43;;;29.90;57.00;;;31.97;31.61;100623.50;4950579;28;20671;-66
2022/08/21 09:32:51;;;;;;;7.30;4.93;;;29.90;57.10;;;32.04;31.59;100629.56;4953504;29;20620;-69
2022/08/21 09:35:22;;;;;;;6.97;3.90;;;30.00;57.10;;;32.09;31.63;100632.28;4952903;28;20666;-67
2022/08/21 09:38:05;;;;;;;4.47;3.57;;;30.00;57.00;;;31.99;31.65;100624.09;4936742;28;20743;-66
2022/08/21 09:40:35;;;;;;;6.77;3.90;;;29.90;57.00;;;32.12;30.69;100633.69;4954837;29;20655;-66
2022/08/21 09:43:11;;;;;;;3.73;3.37;;;29.90;56.50;;;31.97;30.61;100630.78;4954457;28;20720;-67
2022/08/21 09:45:41;;;;;;;3.80;3.50;;;29.90;56.30;;;31.76;31.39;100629.69;4951985;28;20666;-67
2022/08/21 09:48:21;;;;;;;4.67;3.40;;;29.80;56.40;;;31.28;31.59;100621.38;4953927;29;20628;-66
2022/08/21 09:50:54;;;;;;;3.73;3.33;;;29.60;55.70;;;31.34;32.15;100625.78;4952390;29;20624;-66
2022/08/21 09:53:25;;;;;;;5.20;4.40;;;29.50;56.70;;;31.50;31.59;100629.56;4951959;28;20633;-66
2022/08/21 09:58:49;;;;;;;3.90;3.20;;;29.60;56.40;;;31.31;31.57;100639.75;4948517;28;21077;-66
2022/08/21 10:01:25;;;;;;;3.50;3.20;;;29.40;56.20;;;31.36;31.09;100624.50;4952748;28;20643;-66
2022/08/21 10:04:08;;;;;;;3.17;2.63;;;29.50;55.90;;;31.33;30.77;100624.16;4934107;28;20792;-65
2022/08/21 10:06:35;;;;;;;3.90;2.97;;;29.40;55.40;;;31.71;30.64;100626.91;4951386;28;20633;-65
2022/08/21 10:09:13;;;;;;;5.73;3.77;;;29.60;55.50;;;31.66;30.71;100626.03;4951928;28;20617;-67
2022/08/21 10:12:17;;;;;;;4.00;3.70;;;29.70;55.60;;;31.80;30.62;100624.59;4953117;28;20699;-67
2022/08/21 10:15:09;;;;;;;4.63;4.13;;;29.80;55.50;;;31.75;30.78;100622.66;4941799;29;20662;-65
2022/08/21 10:18:03;;;;;;;6.07;4.03;;;29.70;55.70;;;31.53;30.93;100613.72;4954541;29;20747;-64
2022/08/21 10:21:02;;;;;;;4.17;3.77;;;29.40;56.10;;;31.37;31.16;100618.00;4952233;28;20644;-63
2022/08/21 10:24:10;;;;;;;3.27;2.90;;;29.30;56.30;;;30.61;32.04;100615.06;4934095;29;20620;-66
2022/08/21 10:27:19;;;;;;;4.10;2.93;;;28.80;56.40;;;30.14;32.58;100609.03;4946204;29;20648;-66
2022/08/21 10:30:00;;;;;;;5.40;3.10;;;28.70;56.30;;;29.80;33.08;100596.47;4948413;28;20644;-67
2022/08/21 10:32:36;;;;;;;6.20;3.37;;;28.40;56.90;;;29.51;33.99;100592.03;4942141;29;20986;-66
2022/08/21 10:35:22;;;;;;;4.37;3.57;;;28.20;57.20;;;29.90;33.61;100599.34;4951957;28;21164;-67